Time;durP1;ratioP1;P1;durP2;ratioP2;P2;SDS_P1;SDS_P2;PMS_P1;PMS_P2;Temp;Humidity;BMP_temperature;BMP_pressure;BME280_temperature;BME280_humidity;BME280_pressure;Samples;Min_cycle;Max_cycle;Signal;HPM_P1;HPM_P2
2021/05/05 00:02:09;;;;;;;4.13;2.28;;;;;;;;;;5049025;28;20044;-62
2021/05/05 00:04:38;;;;;;;2.65;2.08;;;;;;;;;;5049683;28;20602;-61
2021/05/05 00:07:05;;;;;;;5.00;2.47;;;;;;;;;;5048873;28;20106;-62
2021/05/05 00:09:33;;;;;;;3.00;2.30;;;;;;;;;;5049523;28;20578;-61
2021/05/05 00:12:00;;;;;;;4.65;2.40;;;;;;;;;;5050095;28;20077;-62
2021/05/05 00:14:27;;;;;;;2.50;2.10;;;;;;;;;;5049528;28;20049;-61
2021/05/05 00:16:55;;;;;;;4.40;2.72;;;;;;;;;;5048669;28;20049;-62
2021/05/05 00:19:22;;;;;;;4.85;2.40;;;;;;;;;;5044500;28;20045;-61
2021/05/05 00:21:50;;;;;;;3.90;2.42;;;;;;;;;;5050031;28;20045;-61
2021/05/05 00:24:18;;;;;;;3.15;2.17;;;;;;;;;;5049294;28;20059;-62
2021/05/05 00:26:45;;;;;;;3.17;2.50;;;;;;;;;;5048499;28;20049;-60
2021/05/05 00:29:13;;;;;;;3.40;2.08;;;;;;;;;;5048685;28;20131;-60
2021/05/05 00:31:40;;;;;;;3.33;2.25;;;;;;;;;;5049946;28;20080;-61
2021/05/05 00:34:08;;;;;;;2.95;2.30;;;;;;;;;;5057785;28;20063;-61
2021/05/05 00:36:35;;;;;;;3.78;2.58;;;;;;;;;;5049204;28;20041;-61
2021/05/05 00:39:04;;;;;;;4.43;2.22;;;;;;;;;;5049127;28;20465;-60
2021/05/05 00:41:32;;;;;;;5.45;2.35;;;;;;;;;;5050528;28;20079;-61
2021/05/05 00:43:59;;;;;;;5.80;2.53;;;;;;;;;;5049469;28;20076;-61
2021/05/05 00:46:27;;;;;;;2.90;2.10;;;;;;;;;;5049973;28;20099;-61
2021/05/05 00:48:54;;;;;;;2.88;2.33;;;;;;;;;;5047947;28;20075;-62
2021/05/05 00:51:22;;;;;;;4.53;2.45;;;;;;;;;;5045582;28;20041;-61
2021/05/05 00:53:49;;;;;;;5.55;2.20;;;;;;;;;;5049288;28;20096;-61
2021/05/05 00:56:18;;;;;;;4.75;2.88;;;;;;;;;;5051883;28;20053;-60
2021/05/05 00:58:45;;;;;;;3.67;2.47;;;;;;;;;;5053058;28;20162;-60
2021/05/05 01:01:12;;;;;;;3.50;2.35;;;;;;;;;;5049616;28;20099;-61
2021/05/05 01:03:40;;;;;;;5.22;2.35;;;;;;;;;;5055691;28;20940;-61
2021/05/05 01:06:07;;;;;;;3.28;2.22;;;;;;;;;;5067062;28;20049;-60
2021/05/05 01:08:35;;;;;;;3.75;2.20;;;;;;;;;;5052393;28;20057;-60
2021/05/05 01:11:03;;;;;;;5.85;2.65;;;;;;;;;;5053849;28;20052;-61
2021/05/05 01:13:31;;;;;;;9.10;3.03;;;;;;;;;;5053739;28;20074;-60
2021/05/05 01:15:58;;;;;;;10.38;2.92;;;;;;;;;;5053670;28;20459;-61
2021/05/05 01:18:26;;;;;;;6.60;2.97;;;;;;;;;;5052951;28;20107;-60
2021/05/05 01:20:56;;;;;;;5.80;2.83;;;;;;;;;;5049169;28;20386;-61
2021/05/05 01:23:24;;;;;;;8.43;2.60;;;;;;;;;;5034126;28;20448;-61
2021/05/05 01:25:52;;;;;;;5.32;2.78;;;;;;;;;;5048990;28;20554;-60
2021/05/05 01:28:19;;;;;;;6.93;2.63;;;;;;;;;;5052950;28;20122;-60
2021/05/05 01:30:47;;;;;;;5.57;2.78;;;;;;;;;;5052967;28;20041;-60
2021/05/05 01:33:15;;;;;;;3.65;2.78;;;;;;;;;;5053307;28;20534;-60
2021/05/05 01:35:43;;;;;;;3.42;2.70;;;;;;;;;;5052342;28;20080;-61
2021/05/05 01:38:11;;;;;;;2.92;2.50;;;;;;;;;;5051892;28;20106;-61
2021/05/05 01:40:39;;;;;;;3.92;2.75;;;;;;;;;;5052227;28;20535;-61
2021/05/05 01:43:07;;;;;;;3.35;2.95;;;;;;;;;;5052643;28;20128;-61
2021/05/05 01:45:35;;;;;;;4.97;3.08;;;;;;;;;;5053725;28;20076;-61
2021/05/05 01:48:04;;;;;;;4.07;3.17;;;;;;;;;;5052181;28;20048;-61
2021/05/05 01:50:32;;;;;;;8.10;2.90;;;;;;;;;;5047906;28;20049;-62
2021/05/05 01:52:59;;;;;;;7.18;3.45;;;;;;;;;;5045683;28;20049;-60
2021/05/05 01:55:27;;;;;;;6.63;3.30;;;;;;;;;;5051062;28;20045;-61
2021/05/05 01:57:55;;;;;;;5.00;3.10;;;;;;;;;;5051998;28;20055;-61
2021/05/05 02:00:23;;;;;;;5.22;3.30;;;;;;;;;;5051876;28;20126;-60
2021/05/05 02:02:50;;;;;;;3.90;3.05;;;;;;;;;;5052153;28;20533;-61
2021/05/05 02:05:18;;;;;;;4.18;3.05;;;;;;;;;;5051913;28;20122;-61
2021/05/05 02:07:48;;;;;;;4.22;3.70;;;;;;;;;;5051548;28;20044;-61
2021/05/05 02:10:17;;;;;;;5.13;3.45;;;;;;;;;;5051424;28;20048;-61
2021/05/05 02:12:45;;;;;;;5.63;3.70;;;;;;;;;;5052538;28;20045;-61
2021/05/05 02:15:13;;;;;;;5.97;3.58;;;;;;;;;;5051916;28;20049;-61
2021/05/05 02:17:41;;;;;;;5.95;3.53;;;;;;;;;;5051483;28;20122;-61
2021/05/05 02:20:10;;;;;;;5.43;3.53;;;;;;;;;;5051524;28;20064;-61
2021/05/05 02:22:38;;;;;;;5.85;3.90;;;;;;;;;;5047208;28;20049;-61
2021/05/05 02:25:07;;;;;;;6.03;3.88;;;;;;;;;;5046979;28;20057;-61
2021/05/05 02:27:35;;;;;;;5.97;3.50;;;;;;;;;;5049790;28;20075;-61
2021/05/05 02:30:03;;;;;;;6.68;4.50;;;;;;;;;;5052308;28;20049;-61
2021/05/05 02:32:31;;;;;;;8.30;4.43;;;;;;;;;;5051032;28;20080;-61
2021/05/05 02:34:58;;;;;;;7.85;4.22;;;;;;;;;;5051525;28;20056;-61
2021/05/05 02:37:25;;;;;;;5.63;3.80;;;;;;;;;;5050246;28;20048;-60
2021/05/05 02:39:54;;;;;;;7.13;3.97;;;;;;;;;;5052816;28;20061;-60
2021/05/05 02:42:21;;;;;;;8.45;3.83;;;;;;;;;;5051168;28;20079;-61
2021/05/05 02:44:50;;;;;;;6.82;3.83;;;;;;;;;;5051128;28;20095;-61
2021/05/05 02:47:19;;;;;;;4.20;3.10;;;;;;;;;;5050749;28;20072;-61
2021/05/05 02:49:48;;;;;;;6.03;3.35;;;;;;;;;;5052155;28;20132;-61
2021/05/05 02:52:16;;;;;;;5.53;3.83;;;;;;;;;;5046605;28;20506;-61
2021/05/05 02:54:44;;;;;;;4.40;3.35;;;;;;;;;;5053285;28;20045;-61
2021/05/05 02:57:11;;;;;;;4.78;3.50;;;;;;;;;;5051432;28;20175;-61
2021/05/05 02:59:40;;;;;;;9.82;4.75;;;;;;;;;;5051396;28;20048;-60
2021/05/05 03:02:08;;;;;;;7.22;4.47;;;;;;;;;;5050053;28;20102;-61
2021/05/05 03:04:37;;;;;;;8.00;4.35;;;;;;;;;;5050629;28;20157;-60
2021/05/05 03:07:05;;;;;;;7.88;4.50;;;;;;;;;;5049835;28;20049;-60
2021/05/05 03:09:32;;;;;;;8.27;4.63;;;;;;;;;;5051042;28;20049;-61
2021/05/05 03:12:00;;;;;;;15.43;4.47;;;;;;;;;;5051812;28;20132;-62
2021/05/05 03:14:29;;;;;;;7.57;5.00;;;;;;;;;;5050892;28;20139;-61
2021/05/05 03:16:57;;;;;;;5.65;4.60;;;;;;;;;;5049840;28;20057;-61
2021/05/05 03:19:25;;;;;;;6.28;4.15;;;;;;;;;;5049531;28;20055;-60
2021/05/05 03:21:53;;;;;;;6.20;4.05;;;;;;;;;;5045704;28;20135;-60
2021/05/05 03:24:21;;;;;;;6.55;3.95;;;;;;;;;;5046499;28;20489;-60
2021/05/05 03:26:48;;;;;;;5.65;3.97;;;;;;;;;;5050828;28;20072;-61
2021/05/05 03:29:16;;;;;;;4.57;3.40;;;;;;;;;;5050837;28;20138;-60
2021/05/05 03:31:44;;;;;;;6.22;3.75;;;;;;;;;;5049112;28;20377;-61
2021/05/05 03:34:11;;;;;;;6.47;3.63;;;;;;;;;;5051102;28;20056;-61
2021/05/05 03:36:39;;;;;;;5.40;3.42;;;;;;;;;;5049073;28;20137;-61
2021/05/05 03:39:07;;;;;;;4.72;3.40;;;;;;;;;;5051256;28;20045;-61
2021/05/05 03:41:35;;;;;;;5.78;3.47;;;;;;;;;;5050178;28;20037;-61
2021/05/05 03:44:02;;;;;;;6.60;4.30;;;;;;;;;;5050805;28;20044;-61
2021/05/05 03:46:30;;;;;;;6.10;4.00;;;;;;;;;;5049846;28;20072;-61
2021/05/05 03:48:57;;;;;;;7.40;4.40;;;;;;;;;;5050571;28;20052;-61
2021/05/05 03:51:25;;;;;;;6.05;4.10;;;;;;;;;;5048097;28;20126;-60
2021/05/05 03:53:52;;;;;;;8.95;4.00;;;;;;;;;;5046373;28;20049;-61
2021/05/05 03:56:21;;;;;;;7.07;4.15;;;;;;;;;;5050385;28;20049;-60
2021/05/05 03:58:48;;;;;;;6.05;4.45;;;;;;;;;;5049092;28;20041;-61
2021/05/05 04:01:15;;;;;;;7.75;4.63;;;;;;;;;;5048809;28;20056;-61
2021/05/05 04:03:43;;;;;;;4.93;3.95;;;;;;;;;;5045855;28;20489;-61
2021/05/05 04:06:10;;;;;;;6.13;3.83;;;;;;;;;;5030187;28;20065;-60
2021/05/05 04:08:37;;;;;;;4.65;3.83;;;;;;;;;;5028394;28;20092;-60
2021/05/05 04:11:05;;;;;;;6.88;4.18;;;;;;;;;;5025333;28;20061;-60
2021/05/05 04:13:34;;;;;;;6.65;4.40;;;;;;;;;;5030849;28;20140;-61
2021/05/05 04:16:19;;;;;;;6.10;4.30;;;;;;;;;;5019850;28;20076;-61
2021/05/05 04:19:04;;;;;;;;;;;;;;;;;;5020386;28;20515;-60
2021/05/05 04:21:50;;;;;;;7.72;4.80;;;;;;;;;;5031337;28;19991;-61
2021/05/05 04:24:35;;;;;;;;;;;;;;;;;;5026707;28;20048;-61
2021/05/05 04:27:02;;;;;;;3.03;2.08;;;;;;;;;;5029788;28;19981;-62
2021/05/05 04:29:31;;;;;;;4.30;1.90;;;;;;;;;;5032910;28;20128;-62
2021/05/05 04:31:58;;;;;;;2.50;1.25;;;;;;;;;;5029413;28;20596;-61
2021/05/05 04:34:26;;;;;;;1.83;0.82;;;;;;;;;;5029481;28;20528;-61
2021/05/05 04:36:54;;;;;;;1.30;0.75;;;;;;;;;;5026271;28;20050;-60
2021/05/05 04:39:22;;;;;;;2.20;0.80;;;;;;;;;;5029966;28;20923;-60
2021/05/05 04:41:50;;;;;;;4.03;0.82;;;;;;;;;;5034687;28;20123;-61
2021/05/05 04:44:18;;;;;;;2.25;0.77;;;;;;;;;;5029464;28;20140;-61
2021/05/05 04:46:46;;;;;;;1.50;0.70;;;;;;;;;;5027364;28;20265;-60
2021/05/05 04:49:13;;;;;;;2.30;0.70;;;;;;;;;;5027144;28;20049;-61
2021/05/05 04:51:41;;;;;;;2.20;0.90;;;;;;;;;;5029429;28;20590;-61
2021/05/05 04:54:08;;;;;;;3.72;0.80;;;;;;;;;;5018097;28;20246;-63
2021/05/05 04:56:35;;;;;;;3.00;1.13;;;;;;;;;;5026325;28;20123;-61
2021/05/05 04:59:04;;;;;;;2.95;1.00;;;;;;;;;;5027415;28;20100;-62
2021/05/05 05:01:31;;;;;;;2.50;0.85;;;;;;;;;;5022264;28;20524;-62
2021/05/05 05:03:59;;;;;;;1.88;0.88;;;;;;;;;;5018788;28;20054;-61
2021/05/05 05:06:27;;;;;;;3.58;1.10;;;;;;;;;;5024361;28;20108;-61
2021/05/05 05:08:54;;;;;;;3.35;1.10;;;;;;;;;;5021053;28;20081;-61
2021/05/05 05:11:22;;;;;;;2.60;1.17;;;;;;;;;;5020711;28;20079;-61
2021/05/05 05:13:49;;;;;;;4.25;1.08;;;;;;;;;;5023420;28;20071;-62
2021/05/05 05:16:17;;;;;;;3.95;1.98;;;;;;;;;;5023564;28;20068;-62
2021/05/05 05:18:49;;;;;;;2.35;1.00;;;;;;;;;;5010833;28;20068;-61
2021/05/05 05:21:17;;;;;;;3.38;0.90;;;;;;;;;;5013856;28;20425;-62
2021/05/05 05:23:45;;;;;;;2.70;1.00;;;;;;;;;;5011398;28;20136;-61
2021/05/05 05:26:14;;;;;;;3.55;1.08;;;;;;;;;;5013797;28;20520;-61
2021/05/05 05:28:42;;;;;;;1.27;0.82;;;;;;;;;;5023315;28;20045;-61
2021/05/05 05:31:09;;;;;;;5.75;0.95;;;;;;;;;;5024005;28;20454;-61
2021/05/05 05:33:37;;;;;;;3.35;0.93;;;;;;;;;;5020650;28;20057;-61
2021/05/05 05:36:07;;;;;;;3.70;0.93;;;;;;;;;;5023074;28;20060;-61
2021/05/05 05:38:35;;;;;;;1.48;0.80;;;;;;;;;;5019364;28;20052;-61
2021/05/05 05:41:03;;;;;;;4.55;0.90;;;;;;;;;;5023385;28;20045;-62
2021/05/05 05:43:30;;;;;;;4.65;0.93;;;;;;;;;;5014531;28;20104;-61
2021/05/05 05:45:58;;;;;;;3.55;0.80;;;;;;;;;;5023109;28;20517;-60
2021/05/05 05:48:25;;;;;;;2.28;0.85;;;;;;;;;;5018294;28;20145;-61
2021/05/05 05:50:52;;;;;;;1.88;0.82;;;;;;;;;;5017709;28;20081;-61
2021/05/05 05:53:20;;;;;;;1.35;0.70;;;;;;;;;;5035064;28;20053;-61
2021/05/05 05:55:48;;;;;;;1.00;0.50;;;;;;;;;;5040028;28;20075;-61
2021/05/05 05:58:16;;;;;;;1.67;0.55;;;;;;;;;;5022716;28;20507;-61
2021/05/05 06:00:44;;;;;;;3.03;0.75;;;;;;;;;;5019771;28;20559;-60
2021/05/05 06:03:12;;;;;;;3.40;0.60;;;;;;;;;;5021870;28;20053;-61
2021/05/05 06:05:39;;;;;;;2.30;0.70;;;;;;;;;;5027178;28;20456;-61
2021/05/05 06:08:07;;;;;;;0.95;0.60;;;;;;;;;;5019501;28;20141;-61
2021/05/05 06:10:35;;;;;;;2.33;0.68;;;;;;;;;;5018074;28;20052;-61
2021/05/05 06:13:04;;;;;;;2.80;0.70;;;;;;;;;;5019478;28;20088;-62
2021/05/05 06:15:32;;;;;;;2.15;0.60;;;;;;;;;;5026117;28;20582;-62
2021/05/05 06:18:00;;;;;;;2.90;0.70;;;;;;;;;;5019288;28;20077;-61
2021/05/05 06:20:28;;;;;;;2.72;0.63;;;;;;;;;;5008174;28;20062;-61
2021/05/05 06:22:55;;;;;;;1.20;0.65;;;;;;;;;;5020088;28;20053;-62
2021/05/05 06:25:24;;;;;;;3.13;0.70;;;;;;;;;;5025401;28;20544;-61
2021/05/05 06:27:52;;;;;;;1.60;0.68;;;;;;;;;;5013000;28;20066;-61
2021/05/05 06:30:22;;;;;;;1.98;0.75;;;;;;;;;;5017382;28;20818;-62
2021/05/05 06:32:51;;;;;;;4.78;0.85;;;;;;;;;;5026404;28;20405;-61
2021/05/05 06:35:22;;;;;;;2.83;0.60;;;;;;;;;;5026758;28;20088;-62
2021/05/05 06:37:50;;;;;;;1.45;0.60;;;;;;;;;;5022374;28;20564;-62
2021/05/05 06:40:19;;;;;;;3.45;0.85;;;;;;;;;;5009810;28;20294;-61
2021/05/05 06:42:47;;;;;;;3.20;0.95;;;;;;;;;;5020737;28;20085;-62
2021/05/05 06:45:16;;;;;;;5.10;1.15;;;;;;;;;;5026630;28;20140;-63
2021/05/05 06:47:46;;;;;;;3.33;0.90;;;;;;;;;;5026121;28;20116;-63
2021/05/05 06:50:15;;;;;;;3.30;0.70;;;;;;;;;;5026518;28;20049;-63
2021/05/05 06:52:43;;;;;;;2.70;0.52;;;;;;;;;;5025331;28;20096;-63
2021/05/05 06:55:12;;;;;;;3.95;0.80;;;;;;;;;;5025207;28;20068;-62
2021/05/05 06:57:40;;;;;;;2.08;0.70;;;;;;;;;;5022408;28;20409;-62
2021/05/05 07:00:09;;;;;;;3.10;0.80;;;;;;;;;;5026240;28;20045;-63
2021/05/05 07:02:37;;;;;;;1.70;0.52;;;;;;;;;;5026107;28;20520;-62
2021/05/05 07:05:07;;;;;;;4.40;0.70;;;;;;;;;;5032898;28;20152;-63
2021/05/05 07:07:35;;;;;;;1.83;0.70;;;;;;;;;;5023622;28;20136;-63
2021/05/05 07:10:04;;;;;;;2.53;0.65;;;;;;;;;;5025637;28;20057;-63
2021/05/05 07:12:32;;;;;;;2.95;0.93;;;;;;;;;;5026377;28;20099;-62
2021/05/05 07:15:00;;;;;;;1.77;0.70;;;;;;;;;;5025501;28;20060;-62
2021/05/05 07:17:29;;;;;;;2.22;0.77;;;;;;;;;;5024815;28;20049;-63
2021/05/05 07:19:57;;;;;;;1.83;0.80;;;;;;;;;;5023321;28;20057;-63
2021/05/05 07:22:27;;;;;;;1.63;0.75;;;;;;;;;;5025763;28;20057;-62
2021/05/05 07:24:54;;;;;;;2.22;1.02;;;;;;;;;;5024860;28;20065;-63
2021/05/05 07:27:23;;;;;;;2.42;1.23;;;;;;;;;;5022900;28;20052;-63
2021/05/05 07:29:50;;;;;;;0.95;0.55;;;;;;;;;;5012748;28;20103;-63
2021/05/05 07:32:18;;;;;;;1.75;0.88;;;;;;;;;;5020272;28;20088;-63
2021/05/05 07:34:47;;;;;;;1.50;0.68;;;;;;;;;;5014643;28;20088;-63
2021/05/05 07:37:21;;;;;;;2.75;0.63;;;;;;;;;;5012688;28;20045;-62
2021/05/05 07:45:53;;;;;;;2.67;1.20;;;;;;;;;;4982765;28;20050;-62
2021/05/05 07:48:27;;;;;;;2.70;1.15;;;;;;;;;;4980755;28;20058;-62
2021/05/05 07:50:56;;;;;;;5.65;2.00;;;;;;;;;;5001343;28;20050;-63
2021/05/05 07:53:23;;;;;;;2.30;0.82;;;;;;;;;;5019730;28;20132;-62
2021/05/05 07:55:55;;;;;;;3.33;1.30;;;;;;;;;;5025526;28;20095;-62
2021/05/05 07:58:22;;;;;;;2.42;0.90;;;;;;;;;;5022023;28;20065;-62
2021/05/05 08:00:50;;;;;;;2.97;0.90;;;;;;;;;;5015460;28;20136;-62
2021/05/05 08:03:18;;;;;;;2.13;1.00;;;;;;;;;;5020520;28;20037;-62
2021/05/05 08:05:47;;;;;;;2.90;0.77;;;;;;;;;;5021358;28;20050;-62
2021/05/05 08:08:18;;;;;;;2.53;1.05;;;;;;;;;;5024915;28;20127;-63
2021/05/05 08:10:46;;;;;;;2.05;0.80;;;;;;;;;;5026517;28;20064;-63
2021/05/05 08:13:16;;;;;;;1.45;0.75;;;;;;;;;;5023243;28;20063;-63
2021/05/05 08:15:44;;;;;;;1.08;0.80;;;;;;;;;;5025084;28;20075;-63
2021/05/05 08:18:13;;;;;;;1.40;0.52;;;;;;;;;;5024339;28;20156;-63
2021/05/05 08:20:42;;;;;;;1.73;1.00;;;;;;;;;;5027028;28;20060;-63
2021/05/05 08:23:10;;;;;;;2.42;0.88;;;;;;;;;;5022075;28;20096;-63
2021/05/05 08:25:40;;;;;;;2.10;0.80;;;;;;;;;;5025821;28;20048;-62
2021/05/05 08:28:08;;;;;;;1.27;0.65;;;;;;;;;;5025065;28;20093;-63
2021/05/05 08:30:37;;;;;;;1.52;0.70;;;;;;;;;;5023812;28;20061;-62
2021/05/05 08:33:06;;;;;;;0.90;0.50;;;;;;;;;;5026581;28;20104;-62
2021/05/05 08:35:34;;;;;;;0.68;0.50;;;;;;;;;;5025142;28;20056;-59
2021/05/05 08:38:02;;;;;;;0.80;0.50;;;;;;;;;;5015688;28;20052;-59
2021/05/05 08:40:32;;;;;;;2.38;0.52;;;;;;;;;;5015707;28;20104;-59
2021/05/05 08:43:02;;;;;;;1.98;0.70;;;;;;;;;;5015470;28;20401;-60
2021/05/05 08:45:31;;;;;;;1.85;0.80;;;;;;;;;;5023937;28;20468;-58
2021/05/05 08:48:05;;;;;;;1.40;0.60;;;;;;;;;;5021170;28;20057;-59
2021/05/05 08:50:35;;;;;;;1.58;0.80;;;;;;;;;;5020463;28;20046;-58
2021/05/05 08:53:03;;;;;;;1.13;0.80;;;;;;;;;;5023908;28;20172;-58
2021/05/05 08:55:32;;;;;;;1.92;0.70;;;;;;;;;;5022631;28;20552;-58
2021/05/05 08:58:01;;;;;;;1.45;0.60;;;;;;;;;;5019711;28;20049;-59
2021/05/05 09:00:30;;;;;;;2.13;0.57;;;;;;;;;;5024793;28;20060;-59
2021/05/05 09:02:58;;;;;;;2.30;0.85;;;;;;;;;;5024572;28;20140;-59
2021/05/05 09:05:47;;;;;;;1.02;0.88;;;;;;;;;;5018779;28;20057;-58
2021/05/05 09:08:15;;;;;;;2.28;0.70;;;;;;;;;;5020694;28;20172;-58
2021/05/05 09:10:55;;;;;;;1.65;1.33;;;;;;;;;;5017131;28;20076;-59
2021/05/05 09:13:43;;;;;;;1.13;0.57;;;;;;;;;;5018091;28;20112;-58
2021/05/05 09:16:12;;;;;;;1.02;0.80;;;;;;;;;;5009253;28;20049;-59
2021/05/05 09:18:53;;;;;;;0.80;0.70;;;;;;;;;;5025737;28;20061;-58
2021/05/05 09:21:30;;;;;;;2.33;0.90;;;;;;;;;;5018750;28;20049;-59
2021/05/05 09:24:18;;;;;;;1.00;0.85;;;;;;;;;;5024763;28;20076;-59
2021/05/05 09:26:47;;;;;;;3.05;0.98;;;;;;;;;;5024754;28;20120;-60
2021/05/05 09:29:15;;;;;;;1.08;0.98;;;;;;;;;;5025226;28;20057;-59
2021/05/05 09:31:44;;;;;;;1.42;0.68;;;;;;;;;;5027921;28;20041;-59
2021/05/05 09:34:13;;;;;;;3.10;1.10;;;;;;;;;;5028195;28;20064;-58
2021/05/05 09:36:43;;;;;;;1.58;1.08;;;;;;;;;;5024022;28;20327;-57
2021/05/05 09:39:11;;;;;;;2.35;1.23;;;;;;;;;;5028895;28;20052;-58
2021/05/05 09:41:45;;;;;;;2.92;0.90;;;;;;;;;;5019587;28;20377;-59
2021/05/05 09:44:13;;;;;;;4.55;1.92;;;;;;;;;;5019751;28;20049;-59
2021/05/05 09:46:43;;;;;;;2.92;1.38;;;;;;;;;;5026515;28;20057;-59
2021/05/05 09:49:19;;;;;;;2.85;1.52;;;;;;;;;;5022777;28;20037;-59
2021/05/05 09:51:48;;;;;;;5.72;1.80;;;;;;;;;;5023965;28;20111;-59
2021/05/05 09:54:26;;;;;;;4.25;1.55;;;;;;;;;;5018830;28;20052;-60
2021/05/05 09:56:55;;;;;;;3.25;1.80;;;;;;;;;;5024952;28;20053;-57
2021/05/05 09:59:23;;;;;;;3.97;2.20;;;;;;;;;;5027000;28;20045;-62
2021/05/05 10:02:00;;;;;;;5.32;1.90;;;;;;;;;;5023526;28;20085;-62
2021/05/05 10:04:30;;;;;;;4.25;1.60;;;;;;;;;;5030569;28;20057;-62
2021/05/05 10:07:01;;;;;;;3.65;1.88;;;;;;;;;;5052716;28;20045;-63
2021/05/05 10:09:29;;;;;;;3.58;1.52;;;;;;;;;;5029372;28;20068;-61
2021/05/05 10:11:57;;;;;;;4.93;2.10;;;;;;;;;;5024061;28;20099;-63
2021/05/05 10:14:47;;;;;;;3.33;1.83;;;;;;;;;;5019542;28;20053;-63
2021/05/05 10:17:16;;;;;;;3.55;1.80;;;;;;;;;;5027288;28;20048;-62
2021/05/05 10:22:21;;;;;;;4.57;1.90;;;;;;;;;;5518899;22;20057;-61
2021/05/05 10:24:49;;;;;;;3.05;1.20;;;;;;;;;;5035951;28;20055;-63
2021/05/05 10:27:17;;;;;;;3.35;1.38;;;;;;;;;;5038021;28;20049;-62
2021/05/05 10:29:47;;;;;;;0.77;0.77;;;;;;;;;;5038768;28;20041;-63
2021/05/05 10:32:15;;;;;;;2.05;1.10;;;;;;;;;;5041768;28;20041;-63
2021/05/05 10:34:44;;;;;;;2.95;1.55;;;;;;;;;;5043503;28;20045;-62
2021/05/05 10:37:12;;;;;;;3.20;1.50;;;;;;;;;;5041612;28;20425;-63
2021/05/05 10:39:43;;;;;;;1.65;1.05;;;;;;;;;;5044337;28;20045;-64
2021/05/05 10:42:14;;;;;;;2.75;1.00;;;;;;;;;;5047110;28;20400;-63
2021/05/05 10:44:44;;;;;;;4.50;1.35;;;;;;;;;;5048044;28;20313;-63
2021/05/05 10:47:17;;;;;;;4.28;1.67;;;;;;;;;;5047151;28;20049;-62
2021/05/05 10:50:15;;;;;;;3.95;1.25;;;;;;;;;;5043767;28;20320;-64
2021/05/05 10:53:02;;;;;;;5.00;1.70;;;;;;;;;;5045170;28;20415;-62
2021/05/05 10:55:38;;;;;;;6.25;1.50;;;;;;;;;;5047926;28;20052;-62
2021/05/05 10:58:08;;;;;;;3.38;1.42;;;;;;;;;;5047274;28;20072;-63
2021/05/05 11:00:47;;;;;;;7.63;1.55;;;;;;;;;;5048536;28;20407;-64
2021/05/05 11:03:15;;;;;;;3.90;1.70;;;;;;;;;;5047618;28;20049;-62
2021/05/05 11:05:44;;;;;;;7.55;1.80;;;;;;;;;;5047980;28;20037;-62
2021/05/05 11:08:26;;;;;;;3.53;1.73;;;;;;;;;;5047338;28;20590;-62
2021/05/05 11:10:57;;;;;;;4.63;1.50;;;;;;;;;;5048881;28;20052;-63
2021/05/05 11:13:41;;;;;;;7.05;1.63;;;;;;;;;;5048122;28;20488;-63
2021/05/05 11:16:09;;;;;;;3.85;1.42;;;;;;;;;;5048207;28;20053;-62
2021/05/05 11:18:47;;;;;;;7.72;1.80;;;;;;;;;;5047745;28;20444;-61
2021/05/05 11:21:34;;;;;;;3.38;1.38;;;;;;;;;;5047368;28;20128;-61
2021/05/05 11:24:02;;;;;;;4.78;1.80;;;;;;;;;;5050218;28;20045;-63
2021/05/05 11:26:33;;;;;;;3.97;1.45;;;;;;;;;;5050056;28;20090;-63
2021/05/05 11:29:01;;;;;;;3.03;1.50;;;;;;;;;;5050501;28;20057;-62
2021/05/05 11:31:48;;;;;;;2.92;1.38;;;;;;;;;;5050118;28;20506;-63
2021/05/05 11:34:30;;;;;;;5.40;1.33;;;;;;;;;;5036915;28;20106;-63
2021/05/05 11:37:16;;;;;;;5.40;1.25;;;;;;;;;;5046942;28;20052;-63
2021/05/05 11:39:46;;;;;;;6.18;1.58;;;;;;;;;;5048878;28;20055;-63
2021/05/05 11:42:16;;;;;;;5.40;1.80;;;;;;;;;;5050711;28;20041;-63
2021/05/05 11:45:05;;;;;;;6.25;1.90;;;;;;;;;;5045995;28;20156;-62
2021/05/05 11:47:35;;;;;;;7.93;2.53;;;;;;;;;;5049695;28;20049;-62
2021/05/05 11:50:04;;;;;;;4.97;1.60;;;;;;;;;;5044827;28;20049;-63
2021/05/05 11:52:33;;;;;;;5.28;1.80;;;;;;;;;;5048297;28;20084;-64
2021/05/05 11:55:01;;;;;;;6.97;2.05;;;;;;;;;;5048415;28;20114;-63
2021/05/05 11:57:31;;;;;;;2.88;1.58;;;;;;;;;;5049318;28;20064;-63
2021/05/05 12:00:10;;;;;;;4.78;1.50;;;;;;;;;;5050578;28;20127;-63
2021/05/05 12:02:43;;;;;;;3.60;1.95;;;;;;;;;;5048945;28;20050;-63
2021/05/05 12:05:21;;;;;;;4.55;1.70;;;;;;;;;;5048146;28;20056;-64
2021/05/05 12:08:00;;;;;;;10.15;2.08;;;;;;;;;;5049404;28;20126;-63
2021/05/05 12:10:38;;;;;;;6.78;1.73;;;;;;;;;;5049182;28;20049;-63
2021/05/05 12:13:08;;;;;;;7.20;1.80;;;;;;;;;;5048677;28;20049;-63
2021/05/05 12:15:38;;;;;;;8.43;2.15;;;;;;;;;;5048874;28;20564;-65
2021/05/05 12:18:18;;;;;;;4.10;1.75;;;;;;;;;;5049681;28;20049;-63
2021/05/05 12:20:46;;;;;;;8.50;2.00;;;;;;;;;;5048378;28;20047;-63
2021/05/05 12:23:14;;;;;;;3.67;2.67;;;;;;;;;;5048965;28;20084;-62
2021/05/05 12:25:43;;;;;;;3.47;1.90;;;;;;;;;;5048614;28;20128;-63
2021/05/05 12:28:13;;;;;;;5.55;2.17;;;;;;;;;;5046493;28;20094;-63
2021/05/05 12:30:42;;;;;;;9.38;1.90;;;;;;;;;;5043790;28;20060;-63
2021/05/05 12:33:10;;;;;;;5.38;1.77;;;;;;;;;;5045181;28;20138;-63
2021/05/05 12:35:39;;;;;;;4.03;1.58;;;;;;;;;;5044349;28;20122;-62
2021/05/05 12:38:08;;;;;;;6.05;2.28;;;;;;;;;;5046205;28;20498;-62
2021/05/05 12:40:37;;;;;;;3.40;1.63;;;;;;;;;;5049404;28;20057;-62
2021/05/05 12:43:13;;;;;;;3.30;1.42;;;;;;;;;;5048889;28;20056;-63
2021/05/05 12:45:41;;;;;;;5.63;1.90;;;;;;;;;;5046582;28;20075;-63
2021/05/05 12:48:27;;;;;;;4.30;1.30;;;;;;;;;;2367692;28;10022854;-63
2021/05/05 12:51:05;;;;;;;3.13;1.60;;;;;;;;;;3655482;28;10000977;-63
2021/05/05 12:53:49;;;;;;;3.25;1.27;;;;;;;;;;5049585;28;20049;-64
2021/05/05 12:56:18;;;;;;;12.33;1.83;;;;;;;;;;5047222;28;20048;-63
2021/05/05 12:58:52;;;;;;;3.90;1.88;;;;;;;;;;5050307;28;20191;-63
2021/05/05 13:01:20;;;;;;;2.88;1.33;;;;;;;;;;5049509;28;20053;-63
2021/05/05 13:03:48;;;;;;;2.63;1.13;;;;;;;;;;5049503;28;20052;-63
2021/05/05 13:06:16;;;;;;;2.22;1.40;;;;;;;;;;5050192;28;20461;-64
2021/05/05 13:08:48;;;;;;;4.13;1.45;;;;;;;;;;5048604;28;20523;-63
2021/05/05 13:11:26;;;;;;;5.35;1.60;;;;;;;;;;5049908;28;20064;-63
2021/05/05 13:13:59;;;;;;;3.65;1.63;;;;;;;;;;5050004;28;20132;-63
2021/05/05 13:16:53;;;;;;;3.05;1.27;;;;;;;;;;5049699;28;20056;-63
2021/05/05 13:19:43;;;;;;;4.15;1.40;;;;;;;;;;5050145;28;20052;-63
2021/05/05 13:30:45;;;;;;;2.75;1.05;;;;;;;;;;5024222;28;20057;-63
2021/05/05 13:33:18;;;;;;;3.97;1.40;;;;;;;;;;5049210;28;20140;-63
2021/05/05 13:35:53;;;;;;;3.78;1.48;;;;;;;;;;5049593;28;20045;-63
2021/05/05 13:38:26;;;;;;;1.92;1.00;;;;;;;;;;5048994;28;20498;-63
2021/05/05 13:41:08;;;;;;;4.57;1.25;;;;;;;;;;5049260;28;20095;-63
2021/05/05 13:43:39;;;;;;;4.93;1.20;;;;;;;;;;5049576;28;20049;-63
2021/05/05 13:46:15;;;;;;;5.13;1.25;;;;;;;;;;5049489;28;20048;-63
2021/05/05 13:48:47;;;;;;;4.68;1.75;;;;;;;;;;5048817;28;20167;-63
2021/05/05 13:51:16;;;;;;;6.13;1.90;;;;;;;;;;5049518;28;20049;-64
2021/05/05 13:53:46;;;;;;;4.43;1.55;;;;;;;;;;5048234;28;20420;-63
2021/05/05 13:56:16;;;;;;;7.03;1.20;;;;;;;;;;5045264;28;20080;-64
2021/05/05 13:58:45;;;;;;;5.82;1.90;;;;;;;;;;5048937;28;20049;-64
2021/05/05 14:01:14;;;;;;;6.80;1.70;;;;;;;;;;5048770;28;20099;-63
2021/05/05 14:03:42;;;;;;;5.97;1.58;;;;;;;;;;5052185;28;20451;-63
2021/05/05 14:06:11;;;;;;;4.60;1.25;;;;;;;;;;5053143;28;20084;-64
2021/05/05 14:08:39;;;;;;;2.28;1.00;;;;;;;;;;5050695;28;20049;-64
2021/05/05 14:11:07;;;;;;;4.57;1.05;;;;;;;;;;5053156;28;20067;-64
2021/05/05 14:13:35;;;;;;;3.63;1.38;;;;;;;;;;5052667;28;20093;-64
2021/05/05 14:16:04;;;;;;;3.05;1.65;;;;;;;;;;5053627;28;20057;-63
2021/05/05 14:18:33;;;;;;;5.00;1.10;;;;;;;;;;5051507;28;20056;-63
2021/05/05 14:21:06;;;;;;;3.38;1.08;;;;;;;;;;5053588;28;20056;-63
2021/05/05 14:23:34;;;;;;;5.30;1.20;;;;;;;;;;5052900;28;20106;-63
2021/05/05 14:26:03;;;;;;;5.97;1.48;;;;;;;;;;5053433;28;20045;-63
2021/05/05 14:28:34;;;;;;;2.55;1.30;;;;;;;;;;5051856;28;20056;-63
2021/05/05 14:31:02;;;;;;;4.18;1.58;;;;;;;;;;5051990;28;20395;-63
2021/05/05 14:33:30;;;;;;;3.17;1.25;;;;;;;;;;5052083;28;20053;-63
2021/05/05 14:35:59;;;;;;;4.57;1.33;;;;;;;;;;5052675;28;20049;-63
2021/05/05 14:38:31;;;;;;;3.05;1.17;;;;;;;;;;5050562;28;20056;-63
2021/05/05 14:41:03;;;;;;;2.92;1.42;;;;;;;;;;5047090;28;20068;-63
2021/05/05 14:43:34;;;;;;;3.92;1.77;;;;;;;;;;5047215;28;20472;-63
2021/05/05 14:46:12;;;;;;;3.65;1.40;;;;;;;;;;5046385;28;20146;-63
2021/05/05 14:48:40;;;;;;;5.50;1.23;;;;;;;;;;5049569;28;20063;-63
2021/05/05 14:51:08;;;;;;;2.85;1.73;;;;;;;;;;5049293;28;20053;-62
2021/05/05 14:53:36;;;;;;;3.45;1.10;;;;;;;;;;5051318;28;20049;-62
2021/05/05 14:56:05;;;;;;;4.63;1.52;;;;;;;;;;5049893;28;20059;-63
2021/05/05 14:58:35;;;;;;;3.63;1.27;;;;;;;;;;5049236;28;20407;-63
2021/05/05 15:01:03;;;;;;;3.50;1.30;;;;;;;;;;5048178;28;20081;-62
2021/05/05 15:03:31;;;;;;;3.20;1.23;;;;;;;;;;5050898;28;20052;-62
2021/05/05 15:06:02;;;;;;;5.47;1.50;;;;;;;;;;5051027;28;20045;-62
2021/05/05 15:08:41;;;;;;;4.03;1.30;;;;;;;;;;5050875;28;20049;-63
2021/05/05 15:14:00;;;;;;;4.78;1.30;;;;;;;;;;5009452;28;20431;-63
2021/05/05 15:35:44;;;;;;;2.40;0.95;;;;;;;;;;5013116;28;20135;-62
2021/05/05 15:38:15;;;;;;;3.40;1.02;;;;;;;;;;5052027;28;20381;-63
2021/05/05 15:40:56;;;;;;;3.35;0.93;;;;;;;;;;5051581;28;20052;-62